createdAt,value
2019-04-20T00:00:01.661Z,60.4259
2019-04-20T00:00:09.971Z,63.8102
2019-04-20T00:00:16.848Z,63.0296
2019-04-20T00:00:23.176Z,63.0701
2019-04-20T00:00:31.577Z,62.6316
2019-04-20T00:00:37.953Z,62.6781
2019-04-20T00:00:49.140Z,65.2117
2019-04-20T00:00:56.116Z,65.6783
2019-04-20T00:01:01.582Z,67.3638
2019-04-20T00:01:05.506Z,69.3732
2019-04-20T00:01:12.561Z,71.3578
2019-04-20T00:01:25.461Z,71.1718
2019-04-20T00:01:31.981Z,66.7305
2019-04-20T00:01:37.264Z,63.6405
2019-04-20T00:01:42.783Z,63.6401
2019-04-20T00:01:47.408Z,63.9171
2019-04-20T00:01:52.522Z,63.4515
2019-04-20T00:02:04.467Z,63.4276
2019-04-20T00:02:13.753Z,65.7728
2019-04-20T00:02:18.898Z,67.3701
2019-04-20T00:02:25.441Z,65.0044
2019-04-20T00:02:29.625Z,63.4000
2019-04-20T00:02:33.706Z,64.0359
2019-04-20T00:02:38.358Z,66.0198
2019-04-20T00:02:43.992Z,68.0339
2019-04-20T00:02:53.920Z,68.9792
2019-04-20T00:03:01.343Z,65.3830
2019-04-20T00:03:05.701Z,65.0274
2019-04-20T00:03:11.648Z,64.6210
2019-04-20T00:03:15.942Z,62.6670
2019-04-20T00:03:26.042Z,60.1903
2019-04-20T00:03:35.312Z,58.5731
2019-04-20T00:03:43.167Z,61.9741
2019-04-20T00:03:48.549Z,61.7951
2019-04-20T00:03:55.601Z,60.0881
2019-04-20T00:04:01.115Z,61.6603
2019-04-20T00:04:05.435Z,62.3079
2019-04-20T00:04:17.055Z,63.6850
2019-04-20T00:04:23.354Z,65.2111
2019-04-20T00:04:30.974Z,66.5838
2019-04-20T00:04:37.401Z,65.2702
2019-04-20T00:04:41.372Z,66.1363
2019-04-20T00:04:45.456Z,63.9231
2019-04-20T00:04:49.416Z,63.4934
2019-04-20T00:04:53.328Z,63.1215
2019-04-20T00:04:59.043Z,62.6776
2019-04-20T00:05:03.518Z,62.3992
2019-04-20T00:05:07.523Z,64.2639
2019-04-20T00:05:11.368Z,63.5249
2019-04-20T00:05:15.028Z,64.2533
2019-04-20T00:05:19.338Z,64.7931
2019-04-20T00:05:23.245Z,63.9677
2019-04-20T00:05:27.481Z,63.5088
2019-04-20T00:05:31.427Z,63.9538
2019-04-20T00:05:35.426Z,63.3752
2019-04-20T00:05:39.346Z,63.5139
2019-04-20T00:05:45.497Z,64.9682
2019-04-20T00:05:49.385Z,66.7790
2019-04-20T00:05:53.395Z,67.5109
2019-04-20T00:05:57.417Z,67.9505
2019-04-20T00:06:01.931Z,67.7919
2019-04-20T00:06:06.982Z,69.6472
2019-04-20T00:06:11.426Z,71.3759
2019-04-20T00:06:15.491Z,71.6478
2019-04-20T00:06:19.888Z,71.1296
2019-04-20T00:06:23.367Z,70.9281
2019-04-20T00:06:31.719Z,70.2239
2019-04-20T00:06:43.147Z,67.8731
2019-04-20T00:06:48.356Z,68.6206
2019-04-20T00:06:55.782Z,68.1332
2019-04-20T00:07:01.864Z,68.6322
2019-04-20T00:07:08.017Z,70.5963
2019-04-20T00:07:12.531Z,68.5155
2019-04-20T00:07:18.725Z,65.5379
2019-04-20T00:07:29.520Z,66.7778
2019-04-20T00:07:37.200Z,69.6930
2019-04-20T00:07:41.843Z,64.5559
2019-04-20T00:07:46.455Z,62.4935
2019-04-20T00:07:50.184Z,61.7255
2019-04-20T00:07:55.504Z,62.0579
2019-04-20T00:08:03.238Z,64.0764
2019-04-20T00:08:16.690Z,64.1308
2019-04-20T00:08:23.370Z,66.5706
2019-04-20T00:08:31.130Z,66.2886
2019-04-20T00:08:39.482Z,65.9004
2019-04-20T00:08:46.259Z,66.3396
2019-04-20T00:08:58.691Z,68.2707
2019-04-20T00:09:08.774Z,68.9930
2019-04-20T00:09:15.940Z,67.2990
2019-04-20T00:09:24.711Z,67.4740
2019-04-20T00:09:31.734Z,68.4620
2019-04-20T00:09:39.772Z,68.3692
2019-04-20T00:09:52.825Z,68.0881
2019-04-20T00:10:01.415Z,65.8643
2019-04-20T00:10:10.121Z,64.6014
2019-04-20T00:10:17.054Z,64.5182
2019-04-20T00:10:23.086Z,63.8066
2019-04-20T00:10:30.255Z,61.8600
2019-04-20T00:10:47.361Z,61.0957
2019-04-20T00:10:54.802Z,58.6798
2019-04-20T00:11:04.123Z,60.1858
2019-04-20T00:11:11.699Z,63.1109
2019-04-20T00:11:23.421Z,64.2632
2019-04-20T00:11:30.381Z,63.3655
2019-04-20T00:11:45.870Z,64.4294
2019-04-20T00:11:53.471Z,65.4613
2019-04-20T00:12:03.009Z,65.7654
2019-04-20T00:12:07.221Z,60.2381
2019-04-20T00:12:17.211Z,57.9292
2019-04-20T00:12:22.852Z,59.0383
2019-04-20T00:12:37.369Z,58.7581
2019-04-20T00:12:51.032Z,58.4303
2019-04-20T00:12:59.734Z,55.6384
2019-04-20T00:13:05.894Z,53.7673
2019-04-20T00:13:16.637Z,56.9574
2019-04-20T00:13:21.565Z,59.8777
2019-04-20T00:13:32.126Z,58.1518
2019-04-20T00:13:40.696Z,55.6349
2019-04-20T00:13:49.777Z,58.7655
2019-04-20T00:13:54.930Z,60.7103
2019-04-20T00:14:03.838Z,58.6560
2019-04-20T00:14:10.916Z,62.3793
2019-04-20T00:14:19.291Z,62.2877
2019-04-20T00:14:27.859Z,57.5932
2019-04-20T00:14:35.455Z,58.6704
2019-04-20T00:14:42.407Z,57.1001
2019-04-20T00:14:48.058Z,57.0658
2019-04-20T00:14:52.437Z,58.4272
2019-04-20T00:14:56.932Z,59.8499
2019-04-20T00:15:02.873Z,61.7403
2019-04-20T00:15:08.993Z,64.3435
2019-04-20T00:15:13.334Z,65.0661
2019-04-20T00:15:17.561Z,63.8021
2019-04-20T00:15:21.733Z,63.0389
2019-04-20T00:15:26.620Z,61.5226
2019-04-20T00:15:30.622Z,59.8823
2019-04-20T00:15:34.625Z,59.6253
2019-04-20T00:15:38.939Z,59.3529
2019-04-20T00:15:43.015Z,58.2617
2019-04-20T00:15:47.306Z,57.4515
2019-04-20T00:15:51.447Z,57.4482
2019-04-20T00:15:56.025Z,58.1042
2019-04-20T00:16:01.905Z,59.0253
2019-04-20T00:16:06.187Z,57.1945
2019-04-20T00:16:10.573Z,57.6667
2019-04-20T00:16:14.981Z,58.1899
2019-04-20T00:16:19.339Z,58.1899
2019-04-20T00:16:25.063Z,58.3078
2019-04-20T00:16:29.385Z,54.8493
2019-04-20T00:16:33.803Z,52.6258
2019-04-20T00:16:39.823Z,53.3749
2019-04-20T00:16:44.345Z,54.8157
2019-04-20T00:16:48.467Z,54.6253
2019-04-20T00:16:52.675Z,55.5847
2019-04-20T00:16:56.868Z,56.9153
2019-04-20T00:17:01.330Z,58.3148
2019-04-20T00:17:05.418Z,58.7959
2019-04-20T00:17:10.021Z,58.6506
2019-04-20T00:17:15.815Z,58.2060
2019-04-20T00:17:19.963Z,58.6916
2019-04-20T00:17:25.028Z,58.9106
2019-04-20T00:17:30.541Z,57.4714
2019-04-20T00:17:39.333Z,55.8631
2019-04-20T00:17:48.595Z,54.6269
2019-04-20T00:17:57.167Z,54.3948
2019-04-20T00:18:06.238Z,53.3946
2019-04-20T00:18:13.155Z,59.2592
2019-04-20T00:18:16.997Z,61.3761
2019-04-20T00:18:24.873Z,62.9586
2019-04-20T00:18:36.865Z,63.1313
2019-04-20T00:18:45.902Z,60.7396
2019-04-20T00:18:53.173Z,58.7926
2019-04-20T00:19:00.762Z,61.8476
2019-04-20T00:19:07.630Z,62.8698
2019-04-20T00:19:21.747Z,62.6798
2019-04-20T00:19:31.331Z,61.4461
2019-04-20T00:19:37.476Z,59.6731
2019-04-20T00:19:45.390Z,61.5629
2019-04-20T00:19:53.804Z,57.8215
2019-04-20T00:19:59.378Z,53.5939
2019-04-20T00:20:13.375Z,56.9398
2019-04-20T00:20:20.782Z,61.8644
2019-04-20T00:20:30.643Z,60.3830
2019-04-20T00:20:36.908Z,59.4270
2019-04-20T00:20:43.833Z,62.2303
2019-04-20T00:20:51.415Z,62.7356
2019-04-20T00:21:00.268Z,65.7090
2019-04-20T00:21:11.014Z,67.6945
2019-04-20T00:21:16.444Z,67.9804
2019-04-20T00:21:22.553Z,68.0327
2019-04-20T00:21:28.999Z,68.0327
2019-04-20T00:21:34.419Z,68.3179
2019-04-20T00:21:46.926Z,65.5610
2019-04-20T00:21:57.747Z,61.4202
2019-04-20T00:22:01.962Z,66.2908
2019-04-20T00:22:10.168Z,67.5669
2019-04-20T00:22:16.940Z,64.3667
2019-04-20T00:22:24.681Z,63.6676
2019-04-20T00:22:39.308Z,63.4645
2019-04-20T00:22:46.073Z,64.0928
2019-04-20T00:22:51.973Z,66.0934
2019-04-20T00:22:58.182Z,68.1185
2019-04-20T00:23:03.495Z,69.5714
2019-04-20T00:23:14.642Z,66.7282
2019-04-20T00:23:22.868Z,61.4764
2019-04-20T00:23:33.707Z,59.3796
2019-04-20T00:23:39.894Z,59.8338
2019-04-20T00:23:47.738Z,63.7642
2019-04-20T00:23:53.130Z,64.8084
2019-04-20T00:24:01.122Z,63.0814
2019-04-20T00:24:13.604Z,61.6298
2019-04-20T00:24:21.707Z,63.1534
2019-04-20T00:24:30.202Z,65.7530
2019-04-20T00:24:37.215Z,62.1477
2019-04-20T00:24:43.930Z,64.5600
2019-04-20T00:24:50.517Z,65.4236
2019-04-20T00:25:04.278Z,65.9918
2019-04-20T00:25:11.918Z,62.6699
2019-04-20T00:25:19.153Z,64.5185
2019-04-20T00:25:39.535Z,68.0635
2019-04-20T00:25:49.789Z,67.4300
2019-04-20T00:25:53.178Z,66.2275
2019-04-20T00:26:02.870Z,61.3746
2019-04-20T00:26:07.700Z,58.1768
2019-04-20T00:26:19.444Z,61.9109
2019-04-20T00:26:27.348Z,65.7626
2019-04-20T00:26:56.346Z,65.0674
2019-04-20T00:27:04.767Z,67.6435
2019-04-20T00:27:22.049Z,68.2749
2019-04-20T00:27:25.973Z,68.0329
2019-04-20T00:27:32.978Z,69.7247
2019-04-20T00:27:37.179Z,69.1288
2019-04-20T00:27:43.357Z,67.2244
2019-04-20T00:27:50.232Z,66.0213
2019-04-20T00:27:59.551Z,65.8169
2019-04-20T00:28:08.552Z,65.0952
2019-04-20T00:28:16.100Z,62.3139
2019-04-20T00:28:25.012Z,65.8829
2019-04-20T00:28:33.905Z,69.1379
2019-04-20T00:28:45.657Z,66.5980
2019-04-20T00:28:50.763Z,64.1357
2019-04-20T00:29:02.308Z,61.1456
2019-04-20T00:29:16.063Z,63.5013
2019-04-20T00:29:21.288Z,63.0399
2019-04-20T00:29:29.720Z,65.6371
2019-04-20T00:29:40.731Z,67.2661
2019-04-20T00:29:47.935Z,63.6385
2019-04-20T00:29:54.748Z,61.0945
2019-04-20T00:30:04.271Z,61.8267
2019-04-20T00:30:15.552Z,61.7580
2019-04-20T00:30:28.247Z,62.4961
2019-04-20T00:30:32.451Z,62.4961
2019-04-20T00:30:40.100Z,60.0068
2019-04-20T00:30:51.776Z,59.9760
2019-04-20T00:30:58.957Z,57.1319
2019-04-20T00:31:09.788Z,55.8143
2019-04-20T00:31:12.431Z,61.1988
2019-04-20T00:31:23.245Z,64.1190
2019-04-20T00:31:30.751Z,65.6921
2019-04-20T00:31:42.125Z,67.2361
2019-04-20T00:31:51.390Z,65.4995
2019-04-20T00:31:56.685Z,66.4227
2019-04-20T00:32:02.595Z,67.4833
2019-04-20T00:32:12.555Z,65.1855
2019-04-20T00:32:19.915Z,66.8212
2019-04-20T00:32:37.691Z,69.2822
2019-04-20T00:32:45.486Z,69.0975
2019-04-20T00:32:53.304Z,68.5068
2019-04-20T00:33:00.860Z,70.5061
2019-04-20T00:33:07.749Z,68.1580
2019-04-20T00:33:21.602Z,66.9582
2019-04-20T00:33:33.038Z,64.9041
2019-04-20T00:33:38.864Z,68.0959
2019-04-20T00:33:48.398Z,70.3704
2019-04-20T00:33:53.773Z,72.0543
2019-04-20T00:34:02.375Z,71.8893
2019-04-20T00:34:11.564Z,74.4598
2019-04-20T00:34:18.092Z,73.0081
2019-04-20T00:34:24.609Z,67.7484
2019-04-20T00:34:33.172Z,67.0180
2019-04-20T00:34:39.001Z,67.0180
2019-04-20T00:34:47.113Z,68.8880
2019-04-20T00:34:54.014Z,65.5475
2019-04-20T00:34:59.940Z,65.6297
2019-04-20T00:35:06.194Z,66.6583
2019-04-20T00:35:12.324Z,66.0383
2019-04-20T00:35:16.892Z,64.7721
2019-04-20T00:35:21.463Z,67.1041
2019-04-20T00:35:27.110Z,69.4156
2019-04-20T00:35:31.446Z,68.9647
2019-04-20T00:35:35.917Z,68.4909
2019-04-20T00:35:40.391Z,66.9148
2019-04-20T00:35:46.238Z,64.9647
2019-04-20T00:35:50.434Z,63.9992
2019-04-20T00:35:54.865Z,64.5617
2019-04-20T00:35:59.399Z,65.9168
2019-04-20T00:36:05.270Z,67.8816
2019-04-20T00:36:10.091Z,68.3593
2019-04-20T00:36:15.985Z,67.3589
2019-04-20T00:36:22.100Z,63.6744
2019-04-20T00:36:27.280Z,63.3251
2019-04-20T00:36:32.885Z,62.1589
2019-04-20T00:36:37.485Z,62.1589
2019-04-20T00:36:41.571Z,60.4762
2019-04-20T00:36:47.329Z,61.4725
2019-04-20T00:36:51.925Z,64.0350
2019-04-20T00:36:56.370Z,65.6066
2019-04-20T00:37:00.420Z,66.1483
2019-04-20T00:37:05.412Z,65.3460
2019-04-20T00:37:12.831Z,64.4366
2019-04-20T00:37:17.424Z,66.2156
2019-04-20T00:37:21.357Z,66.1900
2019-04-20T00:37:25.474Z,64.9058
2019-04-20T00:37:29.738Z,63.7572
2019-04-20T00:37:35.935Z,65.0647
2019-04-20T00:37:40.567Z,63.5242
2019-04-20T00:37:44.556Z,63.8134
2019-04-20T00:37:48.794Z,64.3269
2019-04-20T00:37:52.887Z,64.8733
2019-04-20T00:37:57.408Z,65.6720
2019-04-20T00:38:01.257Z,67.9881
2019-04-20T00:38:05.644Z,69.5871
2019-04-20T00:38:09.832Z,70.9451
2019-04-20T00:38:14.381Z,70.3265
2019-04-20T00:38:18.069Z,69.6677
2019-04-20T00:38:25.998Z,70.3363
2019-04-20T00:38:36.545Z,71.2261
2019-04-20T00:38:46.276Z,73.0475
2019-04-20T00:38:53.702Z,75.9744
2019-04-20T00:39:02.636Z,71.9360
2019-04-20T00:39:10.897Z,74.5148
2019-04-20T00:39:17.235Z,72.7127
2019-04-20T00:39:23.849Z,71.3442
2019-04-20T00:39:28.309Z,73.0561
2019-04-20T00:39:32.391Z,74.4445
2019-04-20T00:39:36.090Z,74.2721
2019-04-20T00:39:40.593Z,75.9514
2019-04-20T00:39:44.746Z,77.2808
2019-04-20T00:39:50.804Z,77.0735
2019-04-20T00:39:55.968Z,77.0256
2019-04-20T00:40:01.549Z,76.9162
2019-04-20T00:40:05.739Z,76.2672
2019-04-20T00:40:09.867Z,74.8386
2019-04-20T00:40:15.076Z,71.8282
2019-04-20T00:40:19.496Z,69.4546
2019-04-20T00:40:23.705Z,67.1542
2019-04-20T00:40:28.464Z,66.5760
2019-04-20T00:40:32.686Z,65.0706
2019-04-20T00:40:37.297Z,64.8988
2019-04-20T00:40:41.332Z,65.3521
2019-04-20T00:40:48.912Z,66.4565
2019-04-20T00:40:59.771Z,69.7225
2019-04-20T00:41:07.578Z,68.3964
2019-04-20T00:41:15.983Z,68.5907
2019-04-20T00:41:23.005Z,69.3393
2019-04-20T00:41:29.612Z,70.2206
2019-04-20T00:41:40.713Z,72.0277
2019-04-20T00:41:50.959Z,71.7190
2019-04-20T00:41:56.245Z,66.9886
2019-04-20T00:42:04.407Z,66.0831
2019-04-20T00:42:12.850Z,70.1842
2019-04-20T00:42:19.858Z,71.9628
2019-04-20T00:42:34.099Z,67.6553
2019-04-20T00:42:42.224Z,65.0721
2019-04-20T00:42:50.796Z,63.9398
2019-04-20T00:42:57.118Z,61.8464
2019-04-20T00:43:04.578Z,62.2036
2019-04-20T00:43:08.710Z,61.6021
2019-04-20T00:43:19.621Z,63.0402
2019-04-20T00:43:28.287Z,66.0070
2019-04-20T00:43:35.353Z,64.5314
2019-04-20T00:43:42.072Z,61.1264
2019-04-20T00:43:47.162Z,61.6365
2019-04-20T00:43:51.369Z,62.4929
2019-04-20T00:43:58.857Z,63.2914
2019-04-20T00:44:12.234Z,65.8302
2019-04-20T00:44:22.075Z,64.4970
2019-04-20T00:44:28.091Z,60.2048
2019-04-20T00:44:35.887Z,56.8629
2019-04-20T00:44:43.802Z,59.6542
2019-04-20T00:44:56.310Z,59.1747
2019-04-20T00:45:06.778Z,54.8865
2019-04-20T00:45:15.391Z,55.8556
2019-04-20T00:45:23.500Z,59.9621
2019-04-20T00:45:30.582Z,59.9522
2019-04-20T00:45:44.926Z,58.4316
2019-04-20T00:45:51.783Z,60.3735
2019-04-20T00:46:04.848Z,62.6143
2019-04-20T00:46:09.129Z,65.7480
2019-04-20T00:46:22.173Z,65.3848
2019-04-20T00:46:31.249Z,64.7616
2019-04-20T00:46:39.685Z,65.6067
2019-04-20T00:46:51.179Z,66.4243
2019-04-20T00:47:01.869Z,64.7079
2019-04-20T00:47:08.437Z,68.6857
2019-04-20T00:47:15.887Z,72.6586
2019-04-20T00:47:30.475Z,73.1060
2019-04-20T00:47:37.344Z,68.9869
2019-04-20T00:47:41.895Z,65.5266
2019-04-20T00:47:51.250Z,61.5159
2019-04-20T00:47:59.724Z,60.2318
2019-04-20T00:48:06.290Z,60.2445
2019-04-20T00:48:22.535Z,63.5497
2019-04-20T00:48:31.554Z,65.6026
2019-04-20T00:48:37.429Z,66.7642
2019-04-20T00:48:46.353Z,62.4322
2019-04-20T00:48:55.101Z,64.1803
2019-04-20T00:49:08.822Z,67.3456
2019-04-20T00:49:20.726Z,68.1447
2019-04-20T00:49:27.089Z,65.3631
2019-04-20T00:49:34.939Z,62.1163
2019-04-20T00:49:46.123Z,60.0190
2019-04-20T00:49:52.741Z,60.7358
2019-04-20T00:50:01.126Z,63.7552
2019-04-20T00:50:15.765Z,62.8132
2019-04-20T00:50:27.022Z,66.8639
2019-04-20T00:50:36.720Z,70.4754
2019-04-20T00:50:40.608Z,69.5670
2019-04-20T00:50:57.491Z,65.9461
2019-04-20T00:51:14.827Z,65.1006
2019-04-20T00:51:23.936Z,69.1092
2019-04-20T00:51:37.637Z,69.8885
2019-04-20T00:51:39.354Z,71.0764
2019-04-20T00:51:46.638Z,67.4192
2019-04-20T00:51:51.096Z,69.8606
2019-04-20T00:52:17.170Z,71.0290
2019-04-20T00:52:23.737Z,68.7552
2019-04-20T00:52:27.667Z,65.1875
2019-04-20T00:52:35.702Z,67.1632
2019-04-20T00:52:44.755Z,65.7495
2019-04-20T00:52:46.984Z,67.7949
2019-04-20T00:52:54.361Z,67.7949
2019-04-20T00:53:02.187Z,62.3367
2019-04-20T00:53:06.736Z,62.3367
2019-04-20T00:53:17.097Z,57.3659
2019-04-20T00:53:26.165Z,59.7884
2019-04-20T00:53:34.211Z,59.3719
2019-04-20T00:53:39.702Z,57.1747
2019-04-20T00:53:48.389Z,59.1847
2019-04-20T00:53:55.899Z,58.5087
2019-04-20T00:54:02.563Z,60.1247
2019-04-20T00:54:07.355Z,59.7682
2019-04-20T00:54:11.539Z,59.9371
2019-04-20T00:54:14.408Z,59.9343
2019-04-20T00:54:18.089Z,59.7268
2019-04-20T00:54:24.224Z,59.3937
2019-04-20T00:54:28.453Z,59.8545
2019-04-20T00:54:32.547Z,60.7919
2019-04-20T00:54:36.906Z,60.0030
2019-04-20T00:54:41.241Z,59.9571
2019-04-20T00:54:45.511Z,59.7820
2019-04-20T00:54:49.499Z,59.0965
2019-04-20T00:54:53.941Z,58.8368
2019-04-20T00:55:00.004Z,59.9725
2019-04-20T00:55:04.380Z,60.4316
2019-04-20T00:55:08.350Z,61.7075
2019-04-20T00:55:12.793Z,60.6034
2019-04-20T00:55:17.481Z,59.4496
2019-04-20T00:55:21.508Z,59.7824
2019-04-20T00:55:25.254Z,59.5579
2019-04-20T00:55:29.383Z,59.6171
2019-04-20T00:55:33.800Z,59.7142
2019-04-20T00:55:38.568Z,59.3596
2019-04-20T00:55:42.326Z,60.2699
2019-04-20T00:55:46.384Z,60.6808
2019-04-20T00:55:50.800Z,60.0833
2019-04-20T00:55:55.544Z,58.1935
2019-04-20T00:55:59.560Z,55.7021
2019-04-20T00:56:05.412Z,54.7402
2019-04-20T00:56:09.971Z,54.4623
2019-04-20T00:56:14.370Z,56.3324
2019-04-20T00:56:18.672Z,58.1859
2019-04-20T00:56:22.639Z,58.4228
2019-04-20T00:56:26.393Z,58.2917
2019-04-20T00:56:30.934Z,59.4390
2019-04-20T00:56:37.074Z,58.8147
2019-04-20T00:56:41.557Z,57.6013
2019-04-20T00:56:45.470Z,59.9634
2019-04-20T00:56:49.865Z,60.5681
2019-04-20T00:57:06.610Z,59.6241
2019-04-20T00:57:13.280Z,58.5360
2019-04-20T00:57:22.330Z,57.4007
2019-04-20T00:57:34.046Z,57.8011
2019-04-20T00:57:41.568Z,58.6260
2019-04-20T00:57:47.671Z,58.8573
2019-04-20T00:57:56.394Z,60.4537
2019-04-20T00:58:09.378Z,62.3724
2019-04-20T00:58:17.308Z,62.0134
2019-04-20T00:58:24.513Z,64.2812
2019-04-20T00:58:33.580Z,68.5734
2019-04-20T00:58:50.684Z,68.1962
2019-04-20T00:58:52.901Z,68.1962
2019-04-20T00:59:06.509Z,68.4359
2019-04-20T00:59:14.463Z,71.5408
2019-04-20T00:59:24.105Z,71.0612
2019-04-20T00:59:31.613Z,72.0931
2019-04-20T00:59:42.952Z,71.8692
2019-04-20T01:00:03.641Z,69.4229
2019-04-20T01:00:09.395Z,67.8574
2019-04-20T01:00:17.773Z,67.3873
2019-04-20T01:00:22.877Z,68.8236
2019-04-20T01:00:34.174Z,76.9256
2019-04-20T01:00:36.871Z,74.4449
2019-04-20T01:00:58.332Z,75.8891
2019-04-20T01:01:04.097Z,74.6557
2019-04-20T01:01:16.993Z,71.6414
2019-04-20T01:01:22.102Z,71.4107
2019-04-20T01:01:24.898Z,69.9835
2019-04-20T01:01:37.844Z,70.2155
2019-04-20T01:01:48.972Z,71.7780
2019-04-20T01:01:51.947Z,67.9097
2019-04-20T01:02:04.963Z,65.4080
2019-04-20T01:02:10.064Z,65.4883
2019-04-20T01:02:18.037Z,64.9756
2019-04-20T01:02:25.732Z,68.2866
2019-04-20T01:02:29.656Z,69.8330
2019-04-20T01:02:40.669Z,71.3841
2019-04-20T01:02:50.727Z,68.2538
2019-04-20T01:03:04.010Z,66.9329
2019-04-20T01:03:09.854Z,67.9856
2019-04-20T01:03:21.857Z,69.0536
2019-04-20T01:03:32.418Z,68.0860
2019-04-20T01:03:35.955Z,66.8862
2019-04-20T01:03:48.640Z,69.5397
2019-04-20T01:03:58.641Z,71.8549
2019-04-20T01:04:10.616Z,70.0701
2019-04-20T01:04:27.228Z,61.7592
2019-04-20T01:04:38.832Z,64.8697
2019-04-20T01:04:50.875Z,68.0225
2019-04-20T01:04:56.570Z,71.0622
2019-04-20T01:05:04.383Z,66.4086
2019-04-20T01:05:15.189Z,63.8520
2019-04-20T01:05:18.582Z,57.6582
2019-04-20T01:05:23.156Z,57.1107
2019-04-20T01:05:35.433Z,57.6852
2019-04-20T01:05:53.636Z,57.8401
2019-04-20T01:06:00.808Z,57.2910
2019-04-20T01:06:07.909Z,64.0347
2019-04-20T01:06:17.626Z,67.0980
2019-04-20T01:06:24.757Z,69.4152
2019-04-20T01:06:34.115Z,68.9285
2019-04-20T01:06:38.326Z,65.9425
2019-04-20T01:06:49.216Z,66.7965
2019-04-20T01:06:53.990Z,65.9862
2019-04-20T01:07:01.219Z,64.2221
2019-04-20T01:07:09.640Z,62.7178
2019-04-20T01:07:23.291Z,63.3315
2019-04-20T01:07:26.337Z,63.8724
2019-04-20T01:07:35.046Z,63.2729
2019-04-20T01:07:42.000Z,62.6584
2019-04-20T01:07:50.298Z,61.8461
2019-04-20T01:07:58.116Z,61.8196
2019-04-20T01:08:04.629Z,59.6683
2019-04-20T01:08:11.305Z,56.4895
2019-04-20T01:08:15.327Z,56.8315
2019-04-20T01:08:19.531Z,56.6782
2019-04-20T01:08:23.362Z,57.3621
2019-04-20T01:08:27.503Z,56.5680
2019-04-20T01:08:31.808Z,55.0416
2019-04-20T01:08:36.382Z,55.4263
2019-04-20T01:08:42.214Z,58.0380
2019-04-20T01:08:48.472Z,61.3781
2019-04-20T01:08:52.883Z,62.9712
2019-04-20T01:08:57.463Z,63.1980
2019-04-20T01:09:01.868Z,63.4728
2019-04-20T01:09:07.422Z,63.5859
2019-04-20T01:09:11.954Z,62.7595
2019-04-20T01:09:16.495Z,62.8671
2019-04-20T01:09:20.442Z,62.0373
2019-04-20T01:09:24.642Z,63.3665
2019-04-20T01:09:28.804Z,62.0810
2019-04-20T01:09:33.501Z,59.6083
2019-04-20T01:09:39.138Z,57.8252
2019-04-20T01:09:43.434Z,58.5678
2019-04-20T01:09:47.819Z,60.6662
2019-04-20T01:09:52.004Z,60.3149
2019-04-20T01:09:56.479Z,60.3704
2019-04-20T01:10:00.489Z,59.7392
2019-04-20T01:10:04.967Z,58.6390
2019-04-20T01:10:09.509Z,59.0052
2019-04-20T01:10:13.477Z,60.5556
2019-04-20T01:10:17.431Z,61.0563
2019-04-20T01:10:21.619Z,63.0932
2019-04-20T01:10:28.318Z,63.8025
2019-04-20T01:10:38.491Z,62.1649
2019-04-20T01:10:47.199Z,60.8877
2019-04-20T01:10:54.827Z,60.1031
2019-04-20T01:11:02.343Z,58.6727
2019-04-20T01:11:06.327Z,63.2231
2019-04-20T01:11:10.643Z,65.9938
2019-04-20T01:11:16.754Z,68.8817
2019-04-20T01:11:29.997Z,74.6274
2019-04-20T01:11:38.419Z,76.5495
2019-04-20T01:11:45.159Z,74.1856
2019-04-20T01:11:51.659Z,68.7863
2019-04-20T01:11:56.640Z,63.5435
2019-04-20T01:12:05.074Z,61.1279
2019-04-20T01:12:17.287Z,57.5040
2019-04-20T01:12:22.964Z,58.2588
2019-04-20T01:12:31.319Z,55.8561
2019-04-20T01:12:38.728Z,58.8875
2019-04-20T01:12:45.710Z,58.2391
2019-04-20T01:12:52.075Z,59.9061
2019-04-20T01:13:06.828Z,62.0678
2019-04-20T01:13:13.781Z,61.9542
2019-04-20T01:13:20.348Z,60.5351
2019-04-20T01:13:27.185Z,65.7112
2019-04-20T01:13:42.178Z,66.2466
2019-04-20T01:13:48.801Z,68.5259
2019-04-20T01:13:55.366Z,69.6910
2019-04-20T01:14:04.387Z,69.6952
2019-04-20T01:14:12.267Z,70.7632
2019-04-20T01:14:26.079Z,70.1294
2019-04-20T01:14:32.808Z,69.3559
2019-04-20T01:14:44.676Z,71.5162
2019-04-20T01:14:51.428Z,73.3816
2019-04-20T01:14:58.721Z,71.7674
2019-04-20T01:15:06.290Z,69.2582
2019-04-20T01:15:22.420Z,68.7024
2019-04-20T01:15:28.132Z,71.6090
2019-04-20T01:15:38.661Z,71.7150
2019-04-20T01:15:47.367Z,68.2636
2019-04-20T01:15:55.348Z,67.3900
2019-04-20T01:16:03.517Z,71.4136
2019-04-20T01:16:14.655Z,74.7454
2019-04-20T01:16:25.728Z,71.3811
2019-04-20T01:16:33.590Z,69.1349
2019-04-20T01:16:41.776Z,66.4160
2019-04-20T01:16:47.302Z,65.9875
2019-04-20T01:16:56.962Z,63.5775
2019-04-20T01:17:07.179Z,63.8443
2019-04-20T01:17:11.968Z,67.9782
2019-04-20T01:17:16.290Z,67.3354
2019-04-20T01:17:20.394Z,67.2843
2019-04-20T01:17:24.361Z,66.3882
2019-04-20T01:17:28.869Z,64.1990
2019-04-20T01:17:32.329Z,62.5703
2019-04-20T01:17:37.787Z,62.4815
2019-04-20T01:17:45.869Z,62.2316
2019-04-20T01:17:49.465Z,62.7642
2019-04-20T01:17:53.622Z,63.5641
2019-04-20T01:17:57.858Z,65.2853
2019-04-20T01:18:02.368Z,66.4817
2019-04-20T01:18:07.393Z,69.6101
2019-04-20T01:18:14.049Z,70.9766
2019-04-20T01:18:19.360Z,68.9976
2019-04-20T01:18:23.316Z,67.4086
2019-04-20T01:18:27.599Z,67.4086
2019-04-20T01:18:30.391Z,64.0348
2019-04-20T01:18:33.869Z,63.8759
2019-04-20T01:18:36.869Z,65.5978
2019-04-20T01:18:39.546Z,66.1369
2019-04-20T01:18:43.751Z,66.0735
2019-04-20T01:18:51.386Z,67.6569
2019-04-20T01:18:56.949Z,67.2074
2019-04-20T01:19:02.055Z,66.8789
2019-04-20T01:19:06.974Z,66.5787
2019-04-20T01:19:11.409Z,63.8843
2019-04-20T01:19:18.860Z,64.8650
2019-04-20T01:19:23.531Z,62.8040
2019-04-20T01:19:27.348Z,63.7694
2019-04-20T01:19:31.320Z,64.3418
2019-04-20T01:19:35.533Z,63.6791
2019-04-20T01:19:39.569Z,65.1715
2019-04-20T01:19:43.305Z,67.5346
2019-04-20T01:19:48.894Z,69.9084
2019-04-20T01:19:56.486Z,72.3050
2019-04-20T01:20:00.510Z,71.1153
2019-04-20T01:20:05.019Z,71.8777
2019-04-20T01:20:09.359Z,72.4882
2019-04-20T01:20:14.378Z,74.1564
2019-04-20T01:20:18.530Z,74.6791
2019-04-20T01:20:22.601Z,72.7284
2019-04-20T01:20:30.499Z,69.3911
2019-04-20T01:20:34.548Z,68.1316
2019-04-20T01:20:38.906Z,68.7040
2019-04-20T01:20:45.131Z,68.7040
2019-04-20T01:20:49.451Z,70.6784
2019-04-20T01:20:53.629Z,69.1482
2019-04-20T01:21:04.881Z,68.6342
2019-04-20T01:21:13.033Z,69.8844
2019-04-20T01:21:19.865Z,72.2275
2019-04-20T01:21:27.108Z,73.6058
2019-04-20T01:21:35.052Z,71.8800
2019-04-20T01:21:44.914Z,69.6078
2019-04-20T01:21:54.833Z,67.8713
2019-04-20T01:22:03.652Z,66.0895
2019-04-20T01:22:10.728Z,66.4949
2019-04-20T01:22:18.469Z,73.3213
2019-04-20T01:22:27.264Z,71.8308
2019-04-20T01:22:40.306Z,71.5974
2019-04-20T01:22:50.505Z,72.3121
2019-04-20T01:22:59.493Z,76.9374
2019-04-20T01:23:07.462Z,76.3338
2019-04-20T01:23:14.019Z,75.1212
2019-04-20T01:23:21.295Z,77.0150
2019-04-20T01:23:37.563Z,73.4582
2019-04-20T01:23:43.812Z,72.5965
2019-04-20T01:23:51.223Z,72.9408
2019-04-20T01:23:58.616Z,72.2405
2019-04-20T01:24:07.879Z,72.4108
2019-04-20T01:24:20.014Z,71.7184
2019-04-20T01:24:29.165Z,71.4610
2019-04-20T01:24:35.319Z,71.9097
2019-04-20T01:24:43.239Z,65.6338
2019-04-20T01:24:50.352Z,63.6787
2019-04-20T01:24:56.603Z,64.3986
2019-04-20T01:25:12.402Z,66.1414
2019-04-20T01:25:22.061Z,64.6030
2019-04-20T01:25:30.292Z,64.9308
2019-04-20T01:25:35.996Z,68.6678
2019-04-20T01:25:43.643Z,71.4275
2019-04-20T01:25:56.877Z,70.8070
2019-04-20T01:26:04.007Z,71.0428
2019-04-20T01:26:11.523Z,70.6984
2019-04-20T01:26:19.178Z,68.5530
2019-04-20T01:26:24.933Z,65.7531
2019-04-20T01:26:31.274Z,63.9457
2019-04-20T01:26:42.031Z,62.8449
2019-04-20T01:26:50.570Z,63.2475
2019-04-20T01:26:57.961Z,65.8846
2019-04-20T01:27:05.182Z,67.3780
2019-04-20T01:27:29.602Z,66.3026
2019-04-20T01:27:35.009Z,68.1164
2019-04-20T01:27:42.142Z,66.1049
2019-04-20T01:27:50.155Z,64.4616